Ana Sayfa
METAR-TAF:

METAR-TAF

Havaalanları :

Coatesville, Pensilvanya, Amerika Birleşik Devletleri

Enlem: 39-58-44N, Boylam: 075-51-56W, yükseklik: 201 m

Güncel hava durumu gözlemi

Rapor saat 20:35 UTC de 29 dakika önce yapıldı.
Rüzgar kuzeybatıdan 11 kt ve 17 kt'a kadar ani rüzgarlar
Sıcaklık 20°C
Nem 32%
Basınç 1020 hPa
Görüş mesafesi: 16.1 km
7000 ft yükseklikte az bulutlu
11000 ft yükseklikte az bulutlu

METAR: KMQS 312035Z AUTO 32011G17KT 10SM FEW070 FEW110 20/03 A3012 RMK AO2

Saat: 17:04 (21:04 UTC)


TAF: eksik

4.000'den fazla havaalanı için hava durumu gözlemleri ve tahminleri (METAR ve TAF raporları).

Kullanılabilir istasyonlar harita üzerinde sarı ve kırmızı noktalarla gösterilir.

İstasyonun adını görmek için fareyi noktanın üzerinde gezdirin.

Sonrasında hava gözlem ve tahminlerini görmek için tıklayın.

Haritayı değiştirmek için: yaklaştırmak için siyah artı işaretli yeşil düğmeye ve uzaklaştırmak için de eksi işaretli düğmeye hızla tıklayın; bitişik haritalar için yeşil okları kullanın.


METAR-TAF: